首页
METAR-TAF:

METAR-TAF

机场 :

托尔马切沃机场

新西伯利亚, 俄罗斯

纬度: 55-01N, 经度: 082-38E, 海拔: 111米

当前天气观测

该预报发布于21分钟前的20:30 UTC
风速4节,风向北转东北
温度 14°C
湿度 88%
气压 1009 hPa
能见度10公里或以上
1500米以下无云,无积雨云

METAR: UNNT 192030Z 02002MPS CAVOK 14/12 Q1009 R07/090070 R16/090070 NOSIG RMK QFE746/0995

时间: 03:51 (20:51 UTC)

预报

该预报发布于51分钟前的20:00 UTC
预报有效从19日的 21点(UTC)到 20日的 21点(UTC)
风速6节,风向北转东北,有时为16节阵风
能见度10公里或以上
1500米以下无云,无积雨云
成为
从 20日的 04点(UTC)到 20日的 06点(UTC)
风速16节,风向东北,有时为25节阵风
短暂存在
从 20日的 06点(UTC)到 20日的 14点(UTC)
风速6节,风向,有时为16节阵风
成为
从 20日的 14点(UTC)到 20日的 16点(UTC)
风速6节,风向东转东北,有时为16节阵风

TAF: UNNT 192000Z 1921/2021 02003G08MPS CAVOK BECMG 2004/2006 05008G13MPS TEMPO 2006/2014 01003G08MPS BECMG 2014/2016 06003G08MPS

超过4000个机场的气象观测和天气预报(METAR&TAF报告)。

可查询的气象台以黄色和红色小点在地图上表示。

将鼠标移到小点上方,可查看气象台名称。

然后点击查看天气观测和预报。

如需切换地图:点击带黑十字的绿色按钮放大地图;点击带横线的绿色按钮缩小地图;或者点击绿色箭头查看邻近地区的地图。


METAR-TAF: